Time;durP1;ratioP1;P1;durP2;ratioP2;P2;SDS_P1;SDS_P2;PMS_P1;PMS_P2;Temp;Humidity;BMP_temperature;BMP_pressure;BME280_temperature;BME280_humidity;BME280_pressure;Samples;Min_cycle;Max_cycle;Signal;HPM_P1;HPM_P2
2022/09/10 00:01:32;;;;;;;2.78;1.15;;;;;;;;;;5085007;28;20376;-70
2022/09/10 00:03:59;;;;;;;4.78;1.23;;;;;;;;;;5084676;28;20192;-70
2022/09/10 00:06:26;;;;;;;5.60;1.20;;;;;;;;;;5083966;28;20225;-70
2022/09/10 00:08:55;;;;;;;3.03;1.02;;;;;;;;;;5084238;28;20200;-70
2022/09/10 00:11:21;;;;;;;2.30;1.10;;;;;;;;;;5084521;28;20196;-70
2022/09/10 00:13:48;;;;;;;2.25;1.10;;;;;;;;;;5084212;28;20224;-70
2022/09/10 00:16:17;;;;;;;5.70;1.10;;;;;;;;;;5084656;28;20231;-70
2022/09/10 00:18:44;;;;;;;1.65;1.08;;;;;;;;;;5084649;28;20204;-70
2022/09/10 00:21:12;;;;;;;4.95;1.00;;;;;;;;;;5084395;28;20203;-70
2022/09/10 00:23:38;;;;;;;1.80;0.85;;;;;;;;;;5084007;28;20200;-70
2022/09/10 00:26:09;;;;;;;3.35;1.25;;;;;;;;;;5084400;28;20511;-70
2022/09/10 00:28:35;;;;;;;0.80;0.80;;;;;;;;;;5084493;28;20249;-70
2022/09/10 00:31:03;;;;;;;0.85;0.80;;;;;;;;;;5084113;28;20196;-70
2022/09/10 00:33:30;;;;;;;1.95;1.00;;;;;;;;;;5084041;28;20430;-70
2022/09/10 00:35:57;;;;;;;2.00;1.00;;;;;;;;;;5084137;28;20503;-70
2022/09/10 00:38:23;;;;;;;3.95;0.98;;;;;;;;;;5084054;28;20243;-70
2022/09/10 00:40:50;;;;;;;2.75;1.10;;;;;;;;;;5084288;28;20208;-70
2022/09/10 00:43:17;;;;;;;1.45;1.10;;;;;;;;;;5083992;28;20377;-70
2022/09/10 00:45:44;;;;;;;2.63;0.98;;;;;;;;;;5083921;28;20197;-70
2022/09/10 00:48:14;;;;;;;2.38;1.25;;;;;;;;;;5084060;28;20196;-70
2022/09/10 00:50:43;;;;;;;2.25;1.02;;;;;;;;;;5083775;28;20219;-70
2022/09/10 00:53:11;;;;;;;1.05;0.80;;;;;;;;;;5083783;28;20220;-70
2022/09/10 00:55:39;;;;;;;3.38;1.02;;;;;;;;;;5083920;28;20204;-70
2022/09/10 00:58:06;;;;;;;1.73;0.90;;;;;;;;;;5083874;28;20202;-70
2022/09/10 01:00:33;;;;;;;2.85;1.10;;;;;;;;;;5083869;28;20196;-70
2022/09/10 01:02:59;;;;;;;3.78;0.98;;;;;;;;;;5083434;28;20497;-70
2022/09/10 01:05:27;;;;;;;5.00;1.02;;;;;;;;;;5083515;28;20216;-70
2022/09/10 01:07:55;;;;;;;1.55;1.30;;;;;;;;;;5083111;28;20384;-70
2022/09/10 01:10:25;;;;;;;3.75;1.30;;;;;;;;;;5083402;28;20235;-71
2022/09/10 01:13:02;;;;;;;4.65;1.17;;;;;;;;;;5083394;28;20220;-70
2022/09/10 01:15:32;;;;;;;2.22;1.10;;;;;;;;;;5083484;28;20198;-70
2022/09/10 01:21:07;;;;;;;4.20;1.05;;;;;;;;;;5082726;28;20202;-70
2022/09/10 01:24:01;;;;;;;2.08;1.10;;;;;;;;;;5083018;28;20230;-70
2022/09/10 01:26:35;;;;;;;4.10;1.55;;;;;;;;;;5083085;28;20394;-70
2022/09/10 01:29:07;;;;;;;3.30;1.10;;;;;;;;;;5083397;28;20498;-70
2022/09/10 01:31:37;;;;;;;4.13;1.10;;;;;;;;;;5083054;28;20203;-70
2022/09/10 01:34:06;;;;;;;1.88;1.05;;;;;;;;;;5082715;28;20220;-71
2022/09/10 01:36:34;;;;;;;2.95;1.20;;;;;;;;;;5083102;28;20269;-70
2022/09/10 01:39:01;;;;;;;3.03;1.00;;;;;;;;;;5083034;28;20197;-70
2022/09/10 01:41:28;;;;;;;3.28;1.00;;;;;;;;;;5083108;28;20385;-70
2022/09/10 01:43:54;;;;;;;1.40;0.90;;;;;;;;;;5082175;28;20238;-70
2022/09/10 01:46:27;;;;;;;1.70;0.93;;;;;;;;;;5083214;28;20197;-70
2022/09/10 01:49:03;;;;;;;2.63;0.85;;;;;;;;;;5083185;28;20203;-72
2022/09/10 01:51:35;;;;;;;1.73;0.90;;;;;;;;;;5082813;28;20196;-70
2022/09/10 01:54:13;;;;;;;1.10;1.00;;;;;;;;;;5082488;28;20216;-70
2022/09/10 01:56:40;;;;;;;4.15;1.00;;;;;;;;;;5082698;28;20237;-70
2022/09/10 01:59:13;;;;;;;1.08;0.80;;;;;;;;;;5082767;28;20193;-70
2022/09/10 02:01:43;;;;;;;1.80;1.23;;;;;;;;;;5082908;28;20203;-71
2022/09/10 02:07:13;;;;;;;0.70;0.70;;;;;;;;;;5082164;28;20166;-71
2022/09/10 02:09:40;;;;;;;3.38;1.20;;;;;;;;;;5082585;28;20200;-71
2022/09/10 02:12:06;;;;;;;2.10;1.00;;;;;;;;;;5082562;28;20508;-71
2022/09/10 02:14:33;;;;;;;3.67;1.13;;;;;;;;;;5082216;28;20256;-71
2022/09/10 02:17:00;;;;;;;3.13;1.10;;;;;;;;;;5082418;28;20211;-71
2022/09/10 02:19:27;;;;;;;1.52;0.98;;;;;;;;;;5082239;28;20204;-71
2022/09/10 02:21:53;;;;;;;1.20;1.10;;;;;;;;;;5082318;28;20196;-71
2022/09/10 02:24:20;;;;;;;1.58;1.00;;;;;;;;;;5082343;28;20493;-71
2022/09/10 02:26:46;;;;;;;1.08;0.82;;;;;;;;;;5082156;28;20215;-71
2022/09/10 02:29:14;;;;;;;2.92;0.77;;;;;;;;;;5082460;28;20204;-71
2022/09/10 02:31:40;;;;;;;2.50;1.20;;;;;;;;;;5082478;28;20196;-71
2022/09/10 02:34:09;;;;;;;2.45;1.00;;;;;;;;;;5081981;28;20228;-71
2022/09/10 02:36:35;;;;;;;4.85;1.58;;;;;;;;;;5082214;28;20197;-71
2022/09/10 02:39:02;;;;;;;4.57;1.30;;;;;;;;;;5082363;28;20267;-71
2022/09/10 02:41:31;;;;;;;3.17;1.38;;;;;;;;;;5082009;28;20192;-71
2022/09/10 02:43:57;;;;;;;4.97;1.73;;;;;;;;;;5081999;28;20192;-71
2022/09/10 02:46:23;;;;;;;7.25;1.67;;;;;;;;;;5082253;28;20196;-71
2022/09/10 02:48:50;;;;;;;2.88;1.40;;;;;;;;;;5082047;28;20196;-71
2022/09/10 02:51:17;;;;;;;3.38;1.35;;;;;;;;;;5082120;28;20196;-71
2022/09/10 02:53:44;;;;;;;3.83;1.38;;;;;;;;;;5081687;28;20248;-71
2022/09/10 02:56:11;;;;;;;0.82;0.77;;;;;;;;;;5085775;28;20242;-71
2022/09/10 02:58:37;;;;;;;4.95;1.00;;;;;;;;;;5086222;28;20526;-71
2022/09/10 03:01:07;;;;;;;2.60;0.90;;;;;;;;;;5086429;28;20228;-71
2022/09/10 03:03:33;;;;;;;2.22;1.08;;;;;;;;;;5085943;28;20192;-71
2022/09/10 03:06:00;;;;;;;3.45;1.23;;;;;;;;;;5085919;28;20223;-71
2022/09/10 03:08:27;;;;;;;2.47;1.02;;;;;;;;;;5086010;28;20200;-71
2022/09/10 03:10:57;;;;;;;1.23;1.02;;;;;;;;;;5085965;28;20197;-71
2022/09/10 03:13:23;;;;;;;2.03;1.13;;;;;;;;;;5085538;28;20223;-71
2022/09/10 03:15:51;;;;;;;1.55;1.38;;;;;;;;;;5085687;28;20197;-71
2022/09/10 03:18:18;;;;;;;4.35;1.30;;;;;;;;;;5085660;28;20204;-71
2022/09/10 03:20:44;;;;;;;2.85;1.20;;;;;;;;;;5086082;28;20229;-71
2022/09/10 03:23:11;;;;;;;2.97;1.00;;;;;;;;;;5085267;28;20200;-71
2022/09/10 03:25:39;;;;;;;2.33;1.05;;;;;;;;;;5085657;28;20205;-71
2022/09/10 03:28:05;;;;;;;1.20;1.00;;;;;;;;;;5085342;28;20203;-71
2022/09/10 03:30:32;;;;;;;0.80;0.80;;;;;;;;;;5085640;28;20197;-71
2022/09/10 03:32:58;;;;;;;2.63;1.20;;;;;;;;;;5085043;28;20211;-71
2022/09/10 03:35:25;;;;;;;2.45;1.10;;;;;;;;;;5085364;28;20197;-71
2022/09/10 03:37:51;;;;;;;1.77;0.95;;;;;;;;;;5085136;28;20204;-71
2022/09/10 03:40:18;;;;;;;1.95;1.08;;;;;;;;;;5085387;28;20197;-71
2022/09/10 03:42:45;;;;;;;4.10;0.95;;;;;;;;;;5085167;28;20286;-74
2022/09/10 03:45:12;;;;;;;1.15;1.00;;;;;;;;;;5085468;28;20200;-72
2022/09/10 03:47:39;;;;;;;1.52;0.93;;;;;;;;;;5085321;28;20272;-71
2022/09/10 03:50:06;;;;;;;7.53;1.10;;;;;;;;;;5085205;28;20442;-71
2022/09/10 03:52:32;;;;;;;0.93;0.93;;;;;;;;;;5085208;28;20196;-71
2022/09/10 03:54:58;;;;;;;2.90;1.10;;;;;;;;;;5085153;28;20589;-71
2022/09/10 03:57:25;;;;;;;4.80;1.38;;;;;;;;;;5085182;28;20435;-72
2022/09/10 03:59:52;;;;;;;1.55;0.98;;;;;;;;;;5085295;28;20197;-71
2022/09/10 04:02:18;;;;;;;1.95;1.00;;;;;;;;;;5084450;28;20203;-71
2022/09/10 04:04:45;;;;;;;3.08;0.82;;;;;;;;;;5084650;28;20213;-71
2022/09/10 04:07:11;;;;;;;3.17;1.00;;;;;;;;;;5084198;28;20193;-71
2022/09/10 04:09:38;;;;;;;0.95;0.90;;;;;;;;;;5084771;28;20263;-71
2022/09/10 04:12:04;;;;;;;0.88;0.88;;;;;;;;;;5084894;28;20197;-71
2022/09/10 04:14:30;;;;;;;2.28;0.90;;;;;;;;;;5084221;28;20276;-70
2022/09/10 04:16:58;;;;;;;0.82;0.80;;;;;;;;;;5084713;28;20522;-71
2022/09/10 04:19:26;;;;;;;1.35;0.70;;;;;;;;;;5084611;28;20196;-71
2022/09/10 04:21:52;;;;;;;5.20;0.70;;;;;;;;;;5084605;28;20282;-71
2022/09/10 04:24:18;;;;;;;1.52;1.00;;;;;;;;;;5084516;28;20192;-70
2022/09/10 04:26:45;;;;;;;2.60;0.80;;;;;;;;;;5084339;28;20205;-70
2022/09/10 04:29:11;;;;;;;0.77;0.77;;;;;;;;;;5084545;28;20197;-70
2022/09/10 04:31:38;;;;;;;1.08;0.70;;;;;;;;;;5084260;28;20196;-69
2022/09/10 04:34:06;;;;;;;2.75;0.63;;;;;;;;;;5084426;28;20220;-69
2022/09/10 04:36:32;;;;;;;1.20;0.77;;;;;;;;;;5084410;28;20200;-69
2022/09/10 04:38:59;;;;;;;1.15;0.75;;;;;;;;;;5084371;28;20251;-69
2022/09/10 04:41:25;;;;;;;2.10;0.80;;;;;;;;;;5084574;28;20204;-69
2022/09/10 04:43:51;;;;;;;1.85;0.90;;;;;;;;;;5083858;28;20230;-69
2022/09/10 04:46:17;;;;;;;2.75;1.10;;;;;;;;;;5084024;28;20201;-69
2022/09/10 04:48:44;;;;;;;3.85;0.73;;;;;;;;;;5083709;28;20204;-69
2022/09/10 04:51:12;;;;;;;2.92;1.00;;;;;;;;;;5083870;28;20204;-69
2022/09/10 04:53:38;;;;;;;2.15;0.80;;;;;;;;;;5083656;28;20404;-69
2022/09/10 04:56:05;;;;;;;3.00;0.80;;;;;;;;;;5083716;28;20527;-69
2022/09/10 04:58:31;;;;;;;0.68;0.68;;;;;;;;;;5083813;28;20204;-69
2022/09/10 05:00:58;;;;;;;1.60;0.77;;;;;;;;;;5083557;28;20525;-69
2022/09/10 05:03:24;;;;;;;2.22;0.90;;;;;;;;;;5083836;28;20402;-69
2022/09/10 05:05:50;;;;;;;1.35;1.02;;;;;;;;;;5083649;28;20391;-69
2022/09/10 05:08:18;;;;;;;1.05;0.88;;;;;;;;;;5083677;28;20469;-69
2022/09/10 05:10:44;;;;;;;2.03;0.80;;;;;;;;;;5083605;28;20196;-69
2022/09/10 05:13:10;;;;;;;2.33;0.88;;;;;;;;;;5083134;28;20197;-70
2022/09/10 05:15:39;;;;;;;4.75;1.05;;;;;;;;;;5083219;28;20540;-69
2022/09/10 05:18:06;;;;;;;0.82;0.65;;;;;;;;;;5082600;28;20196;-69
2022/09/10 05:20:32;;;;;;;3.33;1.05;;;;;;;;;;5083405;28;20197;-70
2022/09/10 05:22:59;;;;;;;1.70;0.85;;;;;;;;;;5083069;28;20551;-69
2022/09/10 05:25:26;;;;;;;4.50;1.05;;;;;;;;;;5083178;28;20373;-69
2022/09/10 05:27:54;;;;;;;0.82;0.80;;;;;;;;;;5083384;28;20196;-70
2022/09/10 05:30:20;;;;;;;2.58;0.82;;;;;;;;;;5082958;28;20391;-69
2022/09/10 05:32:47;;;;;;;1.17;0.82;;;;;;;;;;5082831;28;20230;-69
2022/09/10 05:35:13;;;;;;;1.38;0.73;;;;;;;;;;5082964;28;20283;-69
2022/09/10 05:37:40;;;;;;;3.05;0.80;;;;;;;;;;5083065;28;20200;-69
2022/09/10 05:40:07;;;;;;;1.17;1.17;;;;;;;;;;5082978;28;20196;-69
2022/09/10 05:42:35;;;;;;;1.08;0.70;;;;;;;;;;5082683;28;20237;-69
2022/09/10 05:45:01;;;;;;;0.98;0.88;;;;;;;;;;5082979;28;20329;-69
2022/09/10 05:47:28;;;;;;;3.88;1.00;;;;;;;;;;5082830;28;20196;-69
2022/09/10 05:49:55;;;;;;;1.92;0.88;;;;;;;;;;5082740;28;20198;-70
2022/09/10 05:52:22;;;;;;;2.67;1.88;;;;;;;;;;5082429;28;20242;-69
2022/09/10 05:54:48;;;;;;;1.58;1.08;;;;;;;;;;5082610;28;20231;-70
2022/09/10 05:57:14;;;;;;;1.63;0.98;;;;;;;;;;5082479;28;20196;-67
2022/09/10 05:59:42;;;;;;;1.17;1.10;;;;;;;;;;5082567;28;20197;-65
2022/09/10 06:02:10;;;;;;;0.80;0.70;;;;;;;;;;5082320;28;20203;-65
2022/09/10 06:04:36;;;;;;;1.88;1.05;;;;;;;;;;5082485;28;20192;-65
2022/09/10 06:07:03;;;;;;;4.70;1.10;;;;;;;;;;5082614;28;20242;-65
2022/09/10 06:09:30;;;;;;;1.48;0.80;;;;;;;;;;5082178;28;20203;-65
2022/09/10 06:11:56;;;;;;;2.40;0.80;;;;;;;;;;5082252;28;20364;-65
2022/09/10 06:14:23;;;;;;;4.43;1.10;;;;;;;;;;5082316;28;20589;-65
2022/09/10 06:16:53;;;;;;;2.80;0.70;;;;;;;;;;5082391;28;20214;-65
2022/09/10 06:19:19;;;;;;;1.27;0.85;;;;;;;;;;5082473;28;20271;-66
2022/09/10 06:21:46;;;;;;;2.60;0.85;;;;;;;;;;5082427;28;20202;-65
2022/09/10 06:24:12;;;;;;;0.70;0.70;;;;;;;;;;5082134;28;20192;-65
2022/09/10 06:26:38;;;;;;;1.20;0.70;;;;;;;;;;5082333;28;20230;-65
2022/09/10 06:29:05;;;;;;;4.35;1.05;;;;;;;;;;5082151;28;20234;-65
2022/09/10 06:31:31;;;;;;;1.45;1.08;;;;;;;;;;5082429;28;20203;-65
2022/09/10 06:33:58;;;;;;;3.92;0.80;;;;;;;;;;5082010;28;20227;-65
2022/09/10 06:36:27;;;;;;;1.58;0.82;;;;;;;;;;5082241;28;20203;-65
2022/09/10 06:38:54;;;;;;;1.10;0.73;;;;;;;;;;5082199;28;20230;-65
2022/09/10 06:41:21;;;;;;;2.55;0.70;;;;;;;;;;5082338;28;20472;-65
2022/09/10 06:43:47;;;;;;;1.80;0.80;;;;;;;;;;5081944;28;20234;-65
2022/09/10 06:46:14;;;;;;;3.40;1.00;;;;;;;;;;5081929;28;20193;-65
2022/09/10 06:48:41;;;;;;;2.83;0.60;;;;;;;;;;5082192;28;20200;-65
2022/09/10 06:51:09;;;;;;;3.13;1.00;;;;;;;;;;5082190;28;20196;-65
2022/09/10 06:53:36;;;;;;;2.58;0.70;;;;;;;;;;5081661;28;20204;-65
2022/09/10 06:56:04;;;;;;;3.05;0.85;;;;;;;;;;5082115;28;20219;-65
2022/09/10 06:58:32;;;;;;;3.80;1.40;;;;;;;;;;5081923;28;20200;-66
2022/09/10 07:00:59;;;;;;;0.73;0.60;;;;;;;;;;5081935;28;20428;-66
2022/09/10 07:03:25;;;;;;;1.08;0.50;;;;;;;;;;5081831;28;20371;-66
2022/09/10 07:05:52;;;;;;;1.10;0.68;;;;;;;;;;5081732;28;20436;-66
2022/09/10 07:08:21;;;;;;;5.20;1.10;;;;;;;;;;5081924;28;20492;-65
2022/09/10 07:10:48;;;;;;;3.22;1.52;;;;;;;;;;5081988;28;20259;-65
2022/09/10 07:13:14;;;;;;;3.35;1.20;;;;;;;;;;5081769;28;20203;-65
2022/09/10 07:15:44;;;;;;;2.10;1.33;;;;;;;;;;5081794;28;20228;-65
2022/09/10 07:18:13;;;;;;;1.08;0.75;;;;;;;;;;5081624;28;20197;-65
2022/09/10 07:20:39;;;;;;;2.20;0.50;;;;;;;;;;5081483;28;20481;-66
2022/09/10 07:23:05;;;;;;;5.45;0.60;;;;;;;;;;5081611;28;20428;-65
2022/09/10 07:25:33;;;;;;;1.52;0.70;;;;;;;;;;5081949;28;20215;-65
2022/09/10 07:28:00;;;;;;;1.10;0.40;;;;;;;;;;5081723;28;20204;-66
2022/09/10 07:30:28;;;;;;;1.27;0.47;;;;;;;;;;5081606;28;20268;-65
2022/09/10 07:32:54;;;;;;;2.38;0.40;;;;;;;;;;5081935;28;20196;-65
2022/09/10 07:35:20;;;;;;;2.03;0.57;;;;;;;;;;5081334;28;20224;-65
2022/09/10 07:37:47;;;;;;;1.48;0.55;;;;;;;;;;5081601;28;20213;-65
2022/09/10 07:40:13;;;;;;;1.85;0.50;;;;;;;;;;5081356;28;20197;-64
2022/09/10 07:42:43;;;;;;;2.53;0.60;;;;;;;;;;5084031;28;20267;-65
2022/09/10 07:45:14;;;;;;;1.42;0.50;;;;;;;;;;5085160;28;20193;-65
2022/09/10 07:47:40;;;;;;;1.27;0.50;;;;;;;;;;5084964;28;20272;-65
2022/09/10 07:50:07;;;;;;;1.13;0.35;;;;;;;;;;5085164;28;20208;-66
2022/09/10 07:52:33;;;;;;;1.02;0.60;;;;;;;;;;5084732;28;20212;-65
2022/09/10 07:55:00;;;;;;;0.40;0.40;;;;;;;;;;5085987;28;20220;-66
2022/09/10 07:57:27;;;;;;;0.75;0.45;;;;;;;;;;5085988;28;20196;-66
2022/09/10 07:59:55;;;;;;;0.95;0.50;;;;;;;;;;5084784;28;20196;-65
2022/09/10 08:02:24;;;;;;;3.05;0.60;;;;;;;;;;5084527;28;20242;-65
2022/09/10 08:04:50;;;;;;;2.75;0.40;;;;;;;;;;5084838;28;20403;-65
2022/09/10 08:07:17;;;;;;;1.52;0.45;;;;;;;;;;5084780;28;20196;-65
2022/09/10 08:09:43;;;;;;;1.13;0.25;;;;;;;;;;5084588;28;20196;-65
2022/09/10 08:12:09;;;;;;;0.30;0.30;;;;;;;;;;5084785;28;20197;-66
2022/09/10 08:14:36;;;;;;;2.65;0.40;;;;;;;;;;5084481;28;20345;-65
2022/09/10 08:17:04;;;;;;;1.95;0.40;;;;;;;;;;5084335;28;20201;-65
2022/09/10 08:19:32;;;;;;;0.40;0.40;;;;;;;;;;5084534;28;20204;-65
2022/09/10 08:21:59;;;;;;;1.60;0.52;;;;;;;;;;5083438;28;20228;-65
2022/09/10 08:24:26;;;;;;;0.63;0.38;;;;;;;;;;5083665;28;20200;-65
2022/09/10 08:26:53;;;;;;;3.42;0.63;;;;;;;;;;5083518;28;20275;-65
2022/09/10 08:29:19;;;;;;;0.70;0.47;;;;;;;;;;5083580;28;20204;-65
2022/09/10 08:31:46;;;;;;;0.30;0.20;;;;;;;;;;5084054;28;20201;-65
2022/09/10 08:34:13;;;;;;;2.67;0.45;;;;;;;;;;5083605;28;20232;-65
2022/09/10 08:36:40;;;;;;;0.43;0.40;;;;;;;;;;5084155;28;20216;-65
2022/09/10 08:39:06;;;;;;;0.65;0.40;;;;;;;;;;5084159;28;20242;-65
2022/09/10 08:41:37;;;;;;;0.73;0.30;;;;;;;;;;5084063;28;20196;-65
2022/09/10 08:44:07;;;;;;;0.30;0.30;;;;;;;;;;5083615;28;20421;-65
2022/09/10 08:46:36;;;;;;;0.35;0.35;;;;;;;;;;5084131;28;20201;-65
2022/09/10 08:49:06;;;;;;;0.55;0.40;;;;;;;;;;5083928;28;20526;-65
2022/09/10 08:51:36;;;;;;;0.90;0.25;;;;;;;;;;5083754;28;20196;-65
2022/09/10 08:54:04;;;;;;;1.08;0.30;;;;;;;;;;5083322;28;20196;-65
2022/09/10 08:56:32;;;;;;;0.40;0.30;;;;;;;;;;5083434;28;20217;-65
2022/09/10 08:59:01;;;;;;;2.45;0.35;;;;;;;;;;5083513;28;20200;-65
2022/09/10 09:01:30;;;;;;;0.40;0.28;;;;;;;;;;5083658;28;20516;-65
2022/09/10 09:03:57;;;;;;;1.05;0.50;;;;;;;;;;5083310;28;20196;-65
2022/09/10 09:06:29;;;;;;;2.25;0.50;;;;;;;;;;5083579;28;20204;-65
2022/09/10 09:08:59;;;;;;;1.00;0.40;;;;;;;;;;5083385;28;20250;-65
2022/09/10 09:11:28;;;;;;;1.55;0.50;;;;;;;;;;5083618;28;20419;-66
2022/09/10 09:14:04;;;;;;;1.15;0.20;;;;;;;;;;5083315;28;20201;-66
2022/09/10 09:16:37;;;;;;;1.67;0.40;;;;;;;;;;5083255;28;20444;-66
2022/09/10 09:19:07;;;;;;;1.08;0.38;;;;;;;;;;5083185;28;20203;-65
2022/09/10 09:21:40;;;;;;;1.45;0.50;;;;;;;;;;5083066;28;20200;-66
2022/09/10 09:24:10;;;;;;;0.88;0.40;;;;;;;;;;5083090;28;20398;-66
2022/09/10 09:26:37;;;;;;;0.52;0.30;;;;;;;;;;5083005;28;20200;-66
2022/09/10 09:29:06;;;;;;;1.05;0.43;;;;;;;;;;5083038;28;20196;-66
2022/09/10 09:31:34;;;;;;;1.33;0.40;;;;;;;;;;5082965;28;20197;-66
2022/09/10 09:34:03;;;;;;;1.67;0.40;;;;;;;;;;5082725;28;20196;-66
2022/09/10 09:36:33;;;;;;;4.10;0.50;;;;;;;;;;5082798;28;20489;-66
2022/09/10 09:39:01;;;;;;;1.95;0.70;;;;;;;;;;5082909;28;20266;-66
2022/09/10 09:41:33;;;;;;;4.20;0.70;;;;;;;;;;5082986;28;20398;-65
2022/09/10 09:44:03;;;;;;;2.17;0.50;;;;;;;;;;5082372;28;20196;-66
2022/09/10 09:46:29;;;;;;;2.95;0.50;;;;;;;;;;5083001;28;20192;-66
2022/09/10 09:48:56;;;;;;;1.73;0.63;;;;;;;;;;5082920;28;20242;-65
2022/09/10 09:51:24;;;;;;;1.20;0.52;;;;;;;;;;5082724;28;20211;-66
2022/09/10 09:53:52;;;;;;;3.30;0.52;;;;;;;;;;5082491;28;20425;-65
2022/09/10 09:56:21;;;;;;;3.15;0.75;;;;;;;;;;5082439;28;20401;-66
2022/09/10 09:58:49;;;;;;;3.45;0.60;;;;;;;;;;5082450;28;20200;-66
2022/09/10 10:01:18;;;;;;;1.27;0.50;;;;;;;;;;5082619;28;20534;-66
2022/09/10 10:03:47;;;;;;;2.00;0.63;;;;;;;;;;5081984;28;20195;-66
2022/09/10 10:06:13;;;;;;;0.95;0.60;;;;;;;;;;5082653;28;20250;-66
2022/09/10 10:08:40;;;;;;;2.00;0.50;;;;;;;;;;5082432;28;20200;-66
2022/09/10 10:11:07;;;;;;;2.10;0.50;;;;;;;;;;5082413;28;20200;-66
2022/09/10 10:13:38;;;;;;;2.25;0.80;;;;;;;;;;5081920;28;20195;-66
2022/09/10 10:16:15;;;;;;;4.90;0.65;;;;;;;;;;5082487;28;20278;-66
2022/09/10 10:18:42;;;;;;;1.48;0.60;;;;;;;;;;5082551;28;20203;-66
2022/09/10 10:21:13;;;;;;;1.80;0.60;;;;;;;;;;5082267;28;20203;-66
2022/09/10 10:23:39;;;;;;;2.05;0.60;;;;;;;;;;5081988;28;20393;-65
2022/09/10 10:26:16;;;;;;;0.80;0.45;;;;;;;;;;5081976;28;20206;-66
2022/09/10 10:28:45;;;;;;;5.25;0.88;;;;;;;;;;5082205;28;20203;-66
2022/09/10 10:31:11;;;;;;;2.25;0.47;;;;;;;;;;5082225;28;20230;-66
2022/09/10 10:33:45;;;;;;;1.33;0.70;;;;;;;;;;5081871;28;20196;-66
2022/09/10 10:36:15;;;;;;;5.05;0.57;;;;;;;;;;5081883;28;20216;-66
2022/09/10 10:38:44;;;;;;;1.48;0.50;;;;;;;;;;5082024;28;20196;-66
2022/09/10 10:41:26;;;;;;;2.88;0.50;;;;;;;;;;5082174;28;20231;-66
2022/09/10 10:43:58;;;;;;;1.70;0.65;;;;;;;;;;5081897;28;20287;-66
2022/09/10 10:46:28;;;;;;;3.17;1.58;;;;;;;;;;5082183;28;20480;-65
2022/09/10 10:49:01;;;;;;;1.70;0.77;;;;;;;;;;5081924;28;20196;-66
2022/09/10 10:51:32;;;;;;;1.52;0.70;;;;;;;;;;5082223;28;20550;-66
2022/09/10 10:54:07;;;;;;;2.38;1.10;;;;;;;;;;5081708;28;20200;-66
2022/09/10 10:56:36;;;;;;;2.13;1.02;;;;;;;;;;5081912;28;20216;-66
2022/09/10 10:59:08;;;;;;;5.30;0.88;;;;;;;;;;5081802;28;20545;-66
2022/09/10 11:01:37;;;;;;;9.68;1.33;;;;;;;;;;5081749;28;20196;-66
2022/09/10 11:04:21;;;;;;;1.30;0.50;;;;;;;;;;5081798;28;20203;-66
2022/09/10 11:06:52;;;;;;;4.85;0.55;;;;;;;;;;5082190;28;20227;-66
2022/09/10 11:09:22;;;;;;;2.03;0.50;;;;;;;;;;5081846;28;20197;-64
2022/09/10 11:11:52;;;;;;;1.45;0.60;;;;;;;;;;5081759;28;20212;-66
2022/09/10 11:14:21;;;;;;;0.82;0.50;;;;;;;;;;5081767;28;20200;-66
2022/09/10 11:16:50;;;;;;;0.40;0.35;;;;;;;;;;5083263;28;20224;-66
2022/09/10 11:19:21;;;;;;;0.70;0.50;;;;;;;;;;5085831;28;20212;-66
2022/09/10 11:21:50;;;;;;;0.77;0.57;;;;;;;;;;5085428;28;20488;-63
2022/09/10 11:24:20;;;;;;;0.65;0.40;;;;;;;;;;5084624;28;20422;-65
2022/09/10 11:26:48;;;;;;;0.73;0.40;;;;;;;;;;5084829;28;20508;-66
2022/09/10 11:29:24;;;;;;;1.42;0.65;;;;;;;;;;5085029;28;20197;-66
2022/09/10 11:31:53;;;;;;;0.77;0.35;;;;;;;;;;5085237;28;20196;-66
2022/09/10 11:34:24;;;;;;;1.30;0.50;;;;;;;;;;5084507;28;20192;-66
2022/09/10 11:36:54;;;;;;;0.75;0.40;;;;;;;;;;5084422;28;20281;-66
2022/09/10 11:39:25;;;;;;;2.20;0.50;;;;;;;;;;5084816;28;20401;-66
2022/09/10 11:41:53;;;;;;;2.05;0.50;;;;;;;;;;5084763;28;20205;-66
2022/09/10 11:44:40;;;;;;;2.40;0.65;;;;;;;;;;5084575;28;20200;-66
2022/09/10 11:47:13;;;;;;;0.90;0.50;;;;;;;;;;5084735;28;20218;-66
2022/09/10 11:49:43;;;;;;;1.55;0.50;;;;;;;;;;5084908;28;20446;-66
2022/09/10 11:52:11;;;;;;;0.30;0.30;;;;;;;;;;5084367;28;20189;-66
2022/09/10 11:54:38;;;;;;;2.45;0.70;;;;;;;;;;5084459;28;20216;-66
2022/09/10 11:57:05;;;;;;;0.88;0.30;;;;;;;;;;5084358;28;20220;-66
2022/09/10 11:59:41;;;;;;;0.73;0.50;;;;;;;;;;5084259;28;20203;-66
2022/09/10 12:02:22;;;;;;;1.40;0.80;;;;;;;;;;5084068;28;20196;-66
2022/09/10 12:04:55;;;;;;;2.40;0.60;;;;;;;;;;5084388;28;20568;-66
2022/09/10 12:07:26;;;;;;;4.32;0.80;;;;;;;;;;5084247;28;20400;-66
2022/09/10 12:09:58;;;;;;;0.77;0.30;;;;;;;;;;5084184;28;20508;-66
2022/09/10 12:12:28;;;;;;;2.70;0.50;;;;;;;;;;5083878;28;20197;-66
2022/09/10 12:14:54;;;;;;;1.58;0.50;;;;;;;;;;5084185;28;20196;-66
2022/09/10 12:17:24;;;;;;;3.70;0.70;;;;;;;;;;5084138;28;20228;-66
2022/09/10 12:19:53;;;;;;;0.93;0.40;;;;;;;;;;5084198;28;20369;-66
2022/09/10 12:22:21;;;;;;;1.10;0.50;;;;;;;;;;5083589;28;20196;-66
2022/09/10 12:24:51;;;;;;;1.58;0.50;;;;;;;;;;5083786;28;20514;-66
2022/09/10 12:27:18;;;;;;;1.60;0.57;;;;;;;;;;5083557;28;20205;-66
2022/09/10 12:29:44;;;;;;;1.55;0.32;;;;;;;;;;5084001;28;20200;-66
2022/09/10 12:32:15;;;;;;;2.72;0.40;;;;;;;;;;5083554;28;20200;-64
2022/09/10 12:34:42;;;;;;;1.08;0.32;;;;;;;;;;5083698;28;20199;-66
2022/09/10 12:37:22;;;;;;;1.58;0.50;;;;;;;;;;5083460;28;20224;-66
2022/09/10 12:39:49;;;;;;;1.65;0.57;;;;;;;;;;5083927;28;20561;-66
2022/09/10 12:42:29;;;;;;;2.88;0.60;;;;;;;;;;5083468;28;20218;-64
2022/09/10 12:44:55;;;;;;;2.17;0.60;;;;;;;;;;5083674;28;20388;-65
2022/09/10 12:47:38;;;;;;;1.98;0.65;;;;;;;;;;5083585;28;20192;-64
2022/09/10 12:50:06;;;;;;;2.53;0.40;;;;;;;;;;5081683;28;20202;-65
2022/09/10 12:52:41;;;;;;;1.77;0.65;;;;;;;;;;5083056;28;20196;-64
2022/09/10 12:55:14;;;;;;;1.38;0.60;;;;;;;;;;5083692;28;20202;-64
2022/09/10 12:57:44;;;;;;;5.25;0.60;;;;;;;;;;5083754;28;20216;-64
2022/09/10 13:00:20;;;;;;;1.67;0.50;;;;;;;;;;5083476;28;20508;-64
2022/09/10 13:02:49;;;;;;;2.45;0.60;;;;;;;;;;5083514;28;20196;-64
2022/09/10 13:05:33;;;;;;;1.02;0.50;;;;;;;;;;5083750;28;20223;-63
2022/09/10 13:08:08;;;;;;;3.90;0.57;;;;;;;;;;5083435;28;20238;-64
2022/09/10 13:10:34;;;;;;;2.28;0.60;;;;;;;;;;5083438;28;20227;-63
2022/09/10 13:13:03;;;;;;;1.27;0.60;;;;;;;;;;5083210;28;20267;-66
2022/09/10 13:15:34;;;;;;;2.55;0.60;;;;;;;;;;5083366;28;20197;-66
2022/09/10 13:18:12;;;;;;;1.85;0.52;;;;;;;;;;5083725;28;20251;-66
2022/09/10 13:20:39;;;;;;;2.10;0.50;;;;;;;;;;5083569;28;20196;-66
2022/09/10 13:23:20;;;;;;;4.55;0.50;;;;;;;;;;5083035;28;20205;-66
2022/09/10 13:25:47;;;;;;;1.38;0.40;;;;;;;;;;5083353;28;20512;-66
2022/09/10 13:28:34;;;;;;;2.45;0.50;;;;;;;;;;5083232;28;20398;-66
2022/09/10 13:31:01;;;;;;;1.85;0.55;;;;;;;;;;5057473;28;20238;-64
2022/09/10 13:33:29;;;;;;;1.92;0.93;;;;;;;;;;5082783;28;20504;-64
2022/09/10 13:36:11;;;;;;;1.67;0.60;;;;;;;;;;5082729;28;20280;-64
2022/09/10 13:39:01;;;;;;;1.20;0.68;;;;;;;;;;5082392;28;20203;-64
2022/09/10 13:41:43;;;;;;;2.40;0.60;;;;;;;;;;5067475;28;20558;-64
2022/09/10 13:44:19;;;;;;;1.30;0.50;;;;;;;;;;5082492;28;20204;-64
2022/09/10 13:46:48;;;;;;;2.30;0.65;;;;;;;;;;5082917;28;20192;-64
2022/09/10 13:49:19;;;;;;;2.63;0.70;;;;;;;;;;5082734;28;20196;-64
2022/09/10 13:51:49;;;;;;;0.60;0.55;;;;;;;;;;5082532;28;20234;-64
2022/09/10 13:54:23;;;;;;;2.60;0.47;;;;;;;;;;5082239;28;20527;-64
2022/09/10 13:56:50;;;;;;;2.38;0.50;;;;;;;;;;5082561;28;20228;-64
2022/09/10 13:59:22;;;;;;;1.17;0.55;;;;;;;;;;5082711;28;20351;-65
2022/09/10 14:01:50;;;;;;;1.02;0.47;;;;;;;;;;5082483;28;20373;-66
2022/09/10 14:04:26;;;;;;;0.90;0.40;;;;;;;;;;5082259;28;20196;-65
2022/09/10 14:06:54;;;;;;;2.08;0.47;;;;;;;;;;5082329;28;20387;-66
2022/09/10 14:09:20;;;;;;;2.22;0.40;;;;;;;;;;5082497;28;20235;-66
2022/09/10 14:11:47;;;;;;;1.90;0.45;;;;;;;;;;5082543;28;20233;-66
2022/09/10 14:14:15;;;;;;;1.80;0.60;;;;;;;;;;5082169;28;20197;-66
2022/09/10 14:16:45;;;;;;;2.28;0.40;;;;;;;;;;5082254;28;20223;-66
2022/09/10 14:19:14;;;;;;;2.05;0.50;;;;;;;;;;5082237;28;20197;-66
2022/09/10 14:21:40;;;;;;;0.60;0.50;;;;;;;;;;5082205;28;20196;-66
2022/09/10 14:24:25;;;;;;;0.52;0.47;;;;;;;;;;5082152;28;20515;-66
2022/09/10 14:27:04;;;;;;;1.85;0.43;;;;;;;;;;5082187;28;20201;-66
2022/09/10 14:29:30;;;;;;;3.42;0.40;;;;;;;;;;5082376;28;20203;-66
2022/09/10 14:32:12;;;;;;;0.85;0.50;;;;;;;;;;5082074;28;20241;-66
2022/09/10 14:34:40;;;;;;;1.10;0.40;;;;;;;;;;5081947;28;20203;-66
2022/09/10 14:37:21;;;;;;;0.60;0.40;;;;;;;;;;5082185;28;20562;-64
2022/09/10 14:39:47;;;;;;;1.00;0.45;;;;;;;;;;5082005;28;20196;-66
2022/09/10 14:42:23;;;;;;;0.77;0.40;;;;;;;;;;5081871;28;20367;-66
2022/09/10 14:44:50;;;;;;;1.73;0.47;;;;;;;;;;5082186;28;20495;-66
2022/09/10 14:47:23;;;;;;;0.82;0.55;;;;;;;;;;5081879;28;20204;-64
2022/09/10 14:49:51;;;;;;;1.05;0.75;;;;;;;;;;5081931;28;20377;-64
2022/09/10 14:52:17;;;;;;;1.27;1.00;;;;;;;;;;5085710;28;20398;-66
2022/09/10 14:54:45;;;;;;;2.53;0.60;;;;;;;;;;5085775;28;20196;-66
2022/09/10 14:57:13;;;;;;;1.23;0.50;;;;;;;;;;5085980;28;20216;-65
2022/09/10 14:59:41;;;;;;;3.10;0.70;;;;;;;;;;5085950;28;20204;-66